sensor_id;sensor_type;location;lat;lon;timestamp;P1;durP1;ratioP1;P2;durP2;ratioP2
52848;SDS011;38714;53.180;5.812;2024-02-26T00:01:55;3.35;;;2.83;;
52848;SDS011;38714;53.180;5.812;2024-02-26T00:04:20;6.47;;;3.65;;
52848;SDS011;38714;53.180;5.812;2024-02-26T00:06:46;2.60;;;2.38;;
52848;SDS011;38714;53.180;5.812;2024-02-26T00:09:13;3.65;;;2.55;;
52848;SDS011;38714;53.180;5.812;2024-02-26T00:11:38;4.35;;;2.78;;
52848;SDS011;38714;53.180;5.812;2024-02-26T00:14:04;10.63;;;4.65;;
52848;SDS011;38714;53.180;5.812;2024-02-26T00:16:30;4.65;;;3.58;;
52848;SDS011;38714;53.180;5.812;2024-02-26T00:18:56;2.67;;;2.05;;
52848;SDS011;38714;53.180;5.812;2024-02-26T00:21:21;2.30;;;2.20;;
52848;SDS011;38714;53.180;5.812;2024-02-26T00:23:47;4.43;;;2.75;;
52848;SDS011;38714;53.180;5.812;2024-02-26T00:26:15;3.80;;;2.83;;
52848;SDS011;38714;53.180;5.812;2024-02-26T00:28:40;3.00;;;2.80;;
52848;SDS011;38714;53.180;5.812;2024-02-26T00:31:06;2.85;;;2.40;;
52848;SDS011;38714;53.180;5.812;2024-02-26T00:33:31;5.15;;;3.50;;
52848;SDS011;38714;53.180;5.812;2024-02-26T00:35:57;4.22;;;3.08;;
52848;SDS011;38714;53.180;5.812;2024-02-26T00:38:23;3.45;;;2.83;;
52848;SDS011;38714;53.180;5.812;2024-02-26T00:40:48;2.85;;;2.63;;
52848;SDS011;38714;53.180;5.812;2024-02-26T00:43:14;2.28;;;2.13;;
52848;SDS011;38714;53.180;5.812;2024-02-26T00:45:39;2.65;;;2.45;;
52848;SDS011;38714;53.180;5.812;2024-02-26T00:48:06;2.28;;;2.15;;
52848;SDS011;38714;53.180;5.812;2024-02-26T00:50:32;5.10;;;1.80;;
52848;SDS011;38714;53.180;5.812;2024-02-26T00:52:58;2.42;;;2.25;;
52848;SDS011;38714;53.180;5.812;2024-02-26T00:55:24;2.30;;;1.42;;
52848;SDS011;38714;53.180;5.812;2024-02-26T00:57:50;2.13;;;1.83;;
52848;SDS011;38714;53.180;5.812;2024-02-26T01:00:15;2.55;;;2.38;;
52848;SDS011;38714;53.180;5.812;2024-02-26T01:02:41;3.15;;;1.85;;
52848;SDS011;38714;53.180;5.812;2024-02-26T01:05:07;1.80;;;1.70;;
52848;SDS011;38714;53.180;5.812;2024-02-26T01:07:36;1.67;;;1.52;;
52848;SDS011;38714;53.180;5.812;2024-02-26T01:10:02;2.88;;;1.73;;
52848;SDS011;38714;53.180;5.812;2024-02-26T01:12:28;1.65;;;1.40;;
52848;SDS011;38714;53.180;5.812;2024-02-26T01:14:54;1.92;;;1.67;;
52848;SDS011;38714;53.180;5.812;2024-02-26T01:17:20;4.60;;;1.92;;
52848;SDS011;38714;53.180;5.812;2024-02-26T01:19:45;2.47;;;2.17;;
52848;SDS011;38714;53.180;5.812;2024-02-26T01:22:11;1.80;;;1.55;;
52848;SDS011;38714;53.180;5.812;2024-02-26T01:24:37;5.45;;;1.60;;
52848;SDS011;38714;53.180;5.812;2024-02-26T01:27:02;2.30;;;1.88;;
52848;SDS011;38714;53.180;5.812;2024-02-26T01:29:28;2.83;;;1.83;;
52848;SDS011;38714;53.180;5.812;2024-02-26T01:31:54;1.90;;;1.55;;
52848;SDS011;38714;53.180;5.812;2024-02-26T01:34:20;2.08;;;1.08;;
52848;SDS011;38714;53.180;5.812;2024-02-26T01:36:45;2.47;;;1.35;;
52848;SDS011;38714;53.180;5.812;2024-02-26T01:39:11;1.83;;;1.38;;
52848;SDS011;38714;53.180;5.812;2024-02-26T01:41:38;1.95;;;1.75;;
52848;SDS011;38714;53.180;5.812;2024-02-26T01:44:04;0.95;;;0.95;;
52848;SDS011;38714;53.180;5.812;2024-02-26T01:46:30;3.58;;;1.27;;
52848;SDS011;38714;53.180;5.812;2024-02-26T01:48:57;1.15;;;1.05;;
52848;SDS011;38714;53.180;5.812;2024-02-26T01:51:23;1.67;;;1.58;;
52848;SDS011;38714;53.180;5.812;2024-02-26T01:53:49;3.60;;;1.58;;
52848;SDS011;38714;53.180;5.812;2024-02-26T01:56:14;2.13;;;2.00;;
52848;SDS011;38714;53.180;5.812;2024-02-26T01:58:42;2.08;;;1.13;;
52848;SDS011;38714;53.180;5.812;2024-02-26T02:01:08;6.38;;;2.60;;
52848;SDS011;38714;53.180;5.812;2024-02-26T02:03:34;1.13;;;1.13;;
52848;SDS011;38714;53.180;5.812;2024-02-26T02:06:02;2.35;;;2.00;;
52848;SDS011;38714;53.180;5.812;2024-02-26T02:08:28;1.58;;;1.50;;
52848;SDS011;38714;53.180;5.812;2024-02-26T02:10:54;2.83;;;1.80;;
52848;SDS011;38714;53.180;5.812;2024-02-26T02:13:20;3.10;;;1.95;;
52848;SDS011;38714;53.180;5.812;2024-02-26T02:15:46;1.70;;;1.60;;
52848;SDS011;38714;53.180;5.812;2024-02-26T02:18:11;1.65;;;1.58;;
52848;SDS011;38714;53.180;5.812;2024-02-26T02:20:37;2.38;;;1.58;;
52848;SDS011;38714;53.180;5.812;2024-02-26T02:23:02;2.88;;;1.00;;
52848;SDS011;38714;53.180;5.812;2024-02-26T02:25:28;0.60;;;0.60;;
52848;SDS011;38714;53.180;5.812;2024-02-26T02:27:54;2.08;;;1.17;;
52848;SDS011;38714;53.180;5.812;2024-02-26T02:30:21;3.05;;;1.85;;
52848;SDS011;38714;53.180;5.812;2024-02-26T02:32:49;1.92;;;1.52;;
52848;SDS011;38714;53.180;5.812;2024-02-26T02:35:15;1.13;;;0.85;;
52848;SDS011;38714;53.180;5.812;2024-02-26T02:37:41;1.23;;;1.05;;
52848;SDS011;38714;53.180;5.812;2024-02-26T02:40:07;1.42;;;1.33;;
52848;SDS011;38714;53.180;5.812;2024-02-26T02:42:33;0.88;;;0.88;;
52848;SDS011;38714;53.180;5.812;2024-02-26T02:44:58;0.35;;;0.35;;
52848;SDS011;38714;53.180;5.812;2024-02-26T02:47:24;0.77;;;0.75;;
52848;SDS011;38714;53.180;5.812;2024-02-26T02:49:49;0.82;;;0.82;;
52848;SDS011;38714;53.180;5.812;2024-02-26T02:52:15;1.67;;;1.20;;
52848;SDS011;38714;53.180;5.812;2024-02-26T02:54:41;1.30;;;1.20;;
52848;SDS011;38714;53.180;5.812;2024-02-26T02:57:07;1.83;;;1.73;;
52848;SDS011;38714;53.180;5.812;2024-02-26T02:59:33;1.10;;;1.05;;
52848;SDS011;38714;53.180;5.812;2024-02-26T03:02:00;1.10;;;0.70;;
52848;SDS011;38714;53.180;5.812;2024-02-26T03:04:25;0.95;;;0.57;;
52848;SDS011;38714;53.180;5.812;2024-02-26T03:06:51;2.17;;;1.70;;
52848;SDS011;38714;53.180;5.812;2024-02-26T03:09:16;1.52;;;1.27;;
52848;SDS011;38714;53.180;5.812;2024-02-26T03:11:42;1.52;;;1.27;;
52848;SDS011;38714;53.180;5.812;2024-02-26T03:14:08;1.50;;;1.40;;
52848;SDS011;38714;53.180;5.812;2024-02-26T03:16:34;5.30;;;1.58;;
52848;SDS011;38714;53.180;5.812;2024-02-26T03:19:00;0.60;;;0.60;;
52848;SDS011;38714;53.180;5.812;2024-02-26T03:21:26;0.80;;;0.75;;
52848;SDS011;38714;53.180;5.812;2024-02-26T03:23:52;1.63;;;1.15;;
52848;SDS011;38714;53.180;5.812;2024-02-26T03:26:18;2.50;;;1.10;;
52848;SDS011;38714;53.180;5.812;2024-02-26T03:28:43;0.73;;;0.73;;
52848;SDS011;38714;53.180;5.812;2024-02-26T03:31:09;2.97;;;1.77;;
52848;SDS011;38714;53.180;5.812;2024-02-26T03:33:35;9.45;;;1.25;;
52848;SDS011;38714;53.180;5.812;2024-02-26T03:36:01;1.00;;;0.98;;
52848;SDS011;38714;53.180;5.812;2024-02-26T03:38:28;3.72;;;1.25;;
52848;SDS011;38714;53.180;5.812;2024-02-26T03:40:54;1.40;;;1.38;;
52848;SDS011;38714;53.180;5.812;2024-02-26T03:43:19;1.67;;;1.58;;
52848;SDS011;38714;53.180;5.812;2024-02-26T03:45:45;1.70;;;1.60;;
52848;SDS011;38714;53.180;5.812;2024-02-26T03:48:10;3.13;;;1.08;;
52848;SDS011;38714;53.180;5.812;2024-02-26T03:50:36;0.80;;;0.60;;
52848;SDS011;38714;53.180;5.812;2024-02-26T03:53:01;2.92;;;1.35;;
52848;SDS011;38714;53.180;5.812;2024-02-26T03:55:27;2.25;;;1.38;;
52848;SDS011;38714;53.180;5.812;2024-02-26T03:57:53;1.63;;;1.45;;
52848;SDS011;38714;53.180;5.812;2024-02-26T04:00:19;2.75;;;0.95;;
52848;SDS011;38714;53.180;5.812;2024-02-26T04:02:46;1.75;;;1.65;;
52848;SDS011;38714;53.180;5.812;2024-02-26T04:05:12;3.97;;;2.20;;
52848;SDS011;38714;53.180;5.812;2024-02-26T04:07:39;1.10;;;1.10;;
52848;SDS011;38714;53.180;5.812;2024-02-26T04:10:11;2.05;;;1.95;;
52848;SDS011;38714;53.180;5.812;2024-02-26T04:12:43;3.42;;;2.33;;
52848;SDS011;38714;53.180;5.812;2024-02-26T04:15:09;1.00;;;0.95;;
52848;SDS011;38714;53.180;5.812;2024-02-26T04:17:36;4.63;;;2.25;;
52848;SDS011;38714;53.180;5.812;2024-02-26T04:20:02;1.38;;;1.27;;
52848;SDS011;38714;53.180;5.812;2024-02-26T04:22:28;1.33;;;1.23;;
52848;SDS011;38714;53.180;5.812;2024-02-26T04:24:54;2.20;;;1.45;;
52848;SDS011;38714;53.180;5.812;2024-02-26T04:27:20;1.45;;;1.33;;
52848;SDS011;38714;53.180;5.812;2024-02-26T04:29:45;1.05;;;0.95;;
52848;SDS011;38714;53.180;5.812;2024-02-26T04:32:11;3.13;;;2.25;;
52848;SDS011;38714;53.180;5.812;2024-02-26T04:34:36;1.63;;;1.48;;
52848;SDS011;38714;53.180;5.812;2024-02-26T04:37:02;1.00;;;0.90;;
52848;SDS011;38714;53.180;5.812;2024-02-26T04:39:28;1.30;;;1.20;;
52848;SDS011;38714;53.180;5.812;2024-02-26T04:41:53;1.23;;;1.13;;
52848;SDS011;38714;53.180;5.812;2024-02-26T04:44:19;1.48;;;1.08;;
52848;SDS011;38714;53.180;5.812;2024-02-26T04:46:44;1.52;;;1.13;;
52848;SDS011;38714;53.180;5.812;2024-02-26T04:49:10;1.85;;;1.75;;
52848;SDS011;38714;53.180;5.812;2024-02-26T04:51:36;1.67;;;1.58;;
52848;SDS011;38714;53.180;5.812;2024-02-26T04:54:02;1.27;;;0.98;;
52848;SDS011;38714;53.180;5.812;2024-02-26T04:56:28;1.23;;;1.15;;
52848;SDS011;38714;53.180;5.812;2024-02-26T04:58:53;2.10;;;1.35;;
52848;SDS011;38714;53.180;5.812;2024-02-26T05:01:19;1.45;;;1.35;;
52848;SDS011;38714;53.180;5.812;2024-02-26T05:03:44;1.60;;;1.50;;
52848;SDS011;38714;53.180;5.812;2024-02-26T05:06:10;1.17;;;1.10;;
52848;SDS011;38714;53.180;5.812;2024-02-26T05:08:35;2.47;;;1.95;;
52848;SDS011;38714;53.180;5.812;2024-02-26T05:11:03;1.13;;;0.82;;
52848;SDS011;38714;53.180;5.812;2024-02-26T05:13:29;13.57;;;0.98;;
52848;SDS011;38714;53.180;5.812;2024-02-26T05:15:54;2.58;;;2.38;;
52848;SDS011;38714;53.180;5.812;2024-02-26T05:18:20;1.25;;;1.25;;
52848;SDS011;38714;53.180;5.812;2024-02-26T05:20:47;0.70;;;0.70;;
52848;SDS011;38714;53.180;5.812;2024-02-26T05:23:12;2.47;;;2.00;;
52848;SDS011;38714;53.180;5.812;2024-02-26T05:25:38;3.63;;;2.00;;
52848;SDS011;38714;53.180;5.812;2024-02-26T05:28:04;2.03;;;1.90;;
52848;SDS011;38714;53.180;5.812;2024-02-26T05:30:30;1.92;;;1.70;;
52848;SDS011;38714;53.180;5.812;2024-02-26T05:32:55;1.05;;;0.70;;
52848;SDS011;38714;53.180;5.812;2024-02-26T05:35:21;2.42;;;1.10;;
52848;SDS011;38714;53.180;5.812;2024-02-26T05:37:46;0.77;;;0.77;;
52848;SDS011;38714;53.180;5.812;2024-02-26T05:40:12;1.38;;;0.88;;
52848;SDS011;38714;53.180;5.812;2024-02-26T05:42:38;1.27;;;0.95;;
52848;SDS011;38714;53.180;5.812;2024-02-26T05:45:03;1.15;;;1.15;;
52848;SDS011;38714;53.180;5.812;2024-02-26T05:47:34;5.28;;;0.85;;
52848;SDS011;38714;53.180;5.812;2024-02-26T05:50:00;1.42;;;0.80;;
52848;SDS011;38714;53.180;5.812;2024-02-26T05:52:26;1.85;;;1.00;;
52848;SDS011;38714;53.180;5.812;2024-02-26T05:54:54;0.98;;;0.98;;
52848;SDS011;38714;53.180;5.812;2024-02-26T05:57:19;1.08;;;0.93;;
52848;SDS011;38714;53.180;5.812;2024-02-26T05:59:45;2.67;;;0.40;;
52848;SDS011;38714;53.180;5.812;2024-02-26T06:02:11;1.30;;;1.20;;
52848;SDS011;38714;53.180;5.812;2024-02-26T06:04:36;1.05;;;1.05;;
52848;SDS011;38714;53.180;5.812;2024-02-26T06:07:02;1.70;;;0.65;;
52848;SDS011;38714;53.180;5.812;2024-02-26T06:09:27;0.60;;;0.60;;
52848;SDS011;38714;53.180;5.812;2024-02-26T06:11:53;0.75;;;0.73;;
52848;SDS011;38714;53.180;5.812;2024-02-26T06:14:19;1.98;;;1.88;;
52848;SDS011;38714;53.180;5.812;2024-02-26T06:16:45;0.98;;;0.90;;
52848;SDS011;38714;53.180;5.812;2024-02-26T06:19:11;2.92;;;0.80;;
52848;SDS011;38714;53.180;5.812;2024-02-26T06:21:36;0.70;;;0.70;;
52848;SDS011;38714;53.180;5.812;2024-02-26T06:24:02;1.02;;;0.98;;
52848;SDS011;38714;53.180;5.812;2024-02-26T06:26:28;1.05;;;1.05;;
52848;SDS011;38714;53.180;5.812;2024-02-26T06:28:54;1.70;;;1.60;;
52848;SDS011;38714;53.180;5.812;2024-02-26T06:31:21;1.55;;;0.90;;
52848;SDS011;38714;53.180;5.812;2024-02-26T06:33:48;2.80;;;1.20;;
52848;SDS011;38714;53.180;5.812;2024-02-26T06:36:15;3.30;;;1.20;;
52848;SDS011;38714;53.180;5.812;2024-02-26T06:38:41;0.75;;;0.60;;
52848;SDS011;38714;53.180;5.812;2024-02-26T06:41:06;1.98;;;0.50;;
52848;SDS011;38714;53.180;5.812;2024-02-26T06:43:32;1.75;;;0.95;;
52848;SDS011;38714;53.180;5.812;2024-02-26T06:45:57;0.57;;;0.40;;
52848;SDS011;38714;53.180;5.812;2024-02-26T06:48:23;2.13;;;0.52;;
52848;SDS011;38714;53.180;5.812;2024-02-26T06:50:49;1.80;;;0.60;;
52848;SDS011;38714;53.180;5.812;2024-02-26T06:53:15;1.65;;;0.68;;
52848;SDS011;38714;53.180;5.812;2024-02-26T06:55:41;0.68;;;0.68;;
52848;SDS011;38714;53.180;5.812;2024-02-26T06:58:07;1.08;;;0.35;;
52848;SDS011;38714;53.180;5.812;2024-02-26T07:00:33;1.25;;;0.40;;
52848;SDS011;38714;53.180;5.812;2024-02-26T07:02:59;0.82;;;0.82;;
52848;SDS011;38714;53.180;5.812;2024-02-26T07:05:25;0.85;;;0.85;;
52848;SDS011;38714;53.180;5.812;2024-02-26T07:07:50;0.40;;;0.40;;
52848;SDS011;38714;53.180;5.812;2024-02-26T07:10:16;2.85;;;1.25;;
52848;SDS011;38714;53.180;5.812;2024-02-26T07:12:42;1.00;;;0.95;;
52848;SDS011;38714;53.180;5.812;2024-02-26T07:15:08;0.80;;;0.80;;
52848;SDS011;38714;53.180;5.812;2024-02-26T07:17:34;0.65;;;0.40;;
52848;SDS011;38714;53.180;5.812;2024-02-26T07:20:00;0.85;;;0.70;;
52848;SDS011;38714;53.180;5.812;2024-02-26T07:22:29;0.68;;;0.68;;
52848;SDS011;38714;53.180;5.812;2024-02-26T07:24:55;0.50;;;0.50;;
52848;SDS011;38714;53.180;5.812;2024-02-26T07:27:20;0.57;;;0.55;;
52848;SDS011;38714;53.180;5.812;2024-02-26T07:29:46;0.70;;;0.68;;
52848;SDS011;38714;53.180;5.812;2024-02-26T07:32:12;1.42;;;0.85;;
52848;SDS011;38714;53.180;5.812;2024-02-26T07:34:38;3.38;;;0.40;;
52848;SDS011;38714;53.180;5.812;2024-02-26T07:37:06;1.70;;;0.95;;
52848;SDS011;38714;53.180;5.812;2024-02-26T07:39:33;0.50;;;0.50;;
52848;SDS011;38714;53.180;5.812;2024-02-26T07:41:59;0.95;;;0.90;;
52848;SDS011;38714;53.180;5.812;2024-02-26T07:44:24;1.63;;;0.98;;
52848;SDS011;38714;53.180;5.812;2024-02-26T07:46:50;2.63;;;0.95;;
52848;SDS011;38714;53.180;5.812;2024-02-26T07:49:16;0.90;;;0.90;;
52848;SDS011;38714;53.180;5.812;2024-02-26T07:51:41;6.22;;;0.82;;
52848;SDS011;38714;53.180;5.812;2024-02-26T07:54:07;1.85;;;1.13;;
52848;SDS011;38714;53.180;5.812;2024-02-26T07:56:33;1.25;;;1.15;;
52848;SDS011;38714;53.180;5.812;2024-02-26T07:58:58;0.80;;;0.52;;
52848;SDS011;38714;53.180;5.812;2024-02-26T08:01:24;2.03;;;1.52;;
52848;SDS011;38714;53.180;5.812;2024-02-26T08:03:51;1.25;;;1.23;;
52848;SDS011;38714;53.180;5.812;2024-02-26T08:06:20;1.10;;;1.10;;
52848;SDS011;38714;53.180;5.812;2024-02-26T08:08:46;0.57;;;0.57;;
52848;SDS011;38714;53.180;5.812;2024-02-26T08:11:14;1.48;;;1.02;;
52848;SDS011;38714;53.180;5.812;2024-02-26T08:13:40;1.55;;;0.47;;
52848;SDS011;38714;53.180;5.812;2024-02-26T08:16:05;0.68;;;0.60;;
52848;SDS011;38714;53.180;5.812;2024-02-26T08:18:31;0.68;;;0.68;;
52848;SDS011;38714;53.180;5.812;2024-02-26T08:20:57;2.55;;;1.63;;
52848;SDS011;38714;53.180;5.812;2024-02-26T08:23:22;1.42;;;0.90;;
52848;SDS011;38714;53.180;5.812;2024-02-26T08:25:48;1.55;;;0.70;;
52848;SDS011;38714;53.180;5.812;2024-02-26T08:28:14;1.30;;;1.20;;
52848;SDS011;38714;53.180;5.812;2024-02-26T08:30:42;1.48;;;0.88;;
52848;SDS011;38714;53.180;5.812;2024-02-26T08:33:08;1.35;;;1.25;;
52848;SDS011;38714;53.180;5.812;2024-02-26T08:35:35;1.10;;;0.98;;
52848;SDS011;38714;53.180;5.812;2024-02-26T08:38:01;0.40;;;0.40;;
52848;SDS011;38714;53.180;5.812;2024-02-26T08:40:27;1.38;;;1.17;;
52848;SDS011;38714;53.180;5.812;2024-02-26T08:42:53;4.25;;;1.20;;
52848;SDS011;38714;53.180;5.812;2024-02-26T08:45:20;1.00;;;0.80;;
52848;SDS011;38714;53.180;5.812;2024-02-26T08:47:46;3.60;;;0.98;;
52848;SDS011;38714;53.180;5.812;2024-02-26T08:50:11;0.82;;;0.80;;
52848;SDS011;38714;53.180;5.812;2024-02-26T08:52:37;0.73;;;0.73;;
52848;SDS011;38714;53.180;5.812;2024-02-26T08:55:03;0.50;;;0.50;;
52848;SDS011;38714;53.180;5.812;2024-02-26T08:57:30;7.05;;;1.45;;
52848;SDS011;38714;53.180;5.812;2024-02-26T08:59:58;4.72;;;1.58;;
52848;SDS011;38714;53.180;5.812;2024-02-26T09:02:25;2.13;;;1.05;;
52848;SDS011;38714;53.180;5.812;2024-02-26T09:04:51;3.05;;;1.10;;
52848;SDS011;38714;53.180;5.812;2024-02-26T09:07:20;0.80;;;0.80;;
52848;SDS011;38714;53.180;5.812;2024-02-26T09:09:46;0.73;;;0.73;;
52848;SDS011;38714;53.180;5.812;2024-02-26T09:12:12;3.20;;;1.25;;
52848;SDS011;38714;53.180;5.812;2024-02-26T09:14:37;0.85;;;0.77;;
52848;SDS011;38714;53.180;5.812;2024-02-26T09:17:03;0.77;;;0.77;;
52848;SDS011;38714;53.180;5.812;2024-02-26T09:19:28;0.60;;;0.60;;
52848;SDS011;38714;53.180;5.812;2024-02-26T09:21:54;3.40;;;0.85;;
52848;SDS011;38714;53.180;5.812;2024-02-26T09:24:23;2.80;;;0.60;;
52848;SDS011;38714;53.180;5.812;2024-02-26T09:26:49;0.73;;;0.70;;
52848;SDS011;38714;53.180;5.812;2024-02-26T09:29:15;0.47;;;0.40;;
52848;SDS011;38714;53.180;5.812;2024-02-26T09:31:41;1.05;;;0.57;;
52848;SDS011;38714;53.180;5.812;2024-02-26T09:34:07;0.55;;;0.55;;
52848;SDS011;38714;53.180;5.812;2024-02-26T09:36:33;1.02;;;0.60;;
52848;SDS011;38714;53.180;5.812;2024-02-26T09:38:59;1.67;;;1.05;;
52848;SDS011;38714;53.180;5.812;2024-02-26T09:41:24;0.75;;;0.70;;
52848;SDS011;38714;53.180;5.812;2024-02-26T09:43:54;1.17;;;0.30;;
52848;SDS011;38714;53.180;5.812;2024-02-26T09:46:22;0.45;;;0.45;;
52848;SDS011;38714;53.180;5.812;2024-02-26T09:48:49;2.17;;;0.70;;
52848;SDS011;38714;53.180;5.812;2024-02-26T09:51:15;0.80;;;0.57;;
52848;SDS011;38714;53.180;5.812;2024-02-26T09:53:45;0.75;;;0.50;;
52848;SDS011;38714;53.180;5.812;2024-02-26T09:56:12;1.15;;;0.73;;
52848;SDS011;38714;53.180;5.812;2024-02-26T09:58:39;0.80;;;0.80;;
52848;SDS011;38714;53.180;5.812;2024-02-26T10:01:11;1.33;;;0.63;;
52848;SDS011;38714;53.180;5.812;2024-02-26T10:03:38;0.75;;;0.45;;
52848;SDS011;38714;53.180;5.812;2024-02-26T10:06:09;1.00;;;0.50;;
52848;SDS011;38714;53.180;5.812;2024-02-26T10:08:38;12.07;;;0.95;;
52848;SDS011;38714;53.180;5.812;2024-02-26T10:11:08;0.47;;;0.45;;
52848;SDS011;38714;53.180;5.812;2024-02-26T10:13:35;1.65;;;0.80;;
52848;SDS011;38714;53.180;5.812;2024-02-26T10:16:01;0.30;;;0.30;;
52848;SDS011;38714;53.180;5.812;2024-02-26T10:18:44;2.13;;;0.85;;
52848;SDS011;38714;53.180;5.812;2024-02-26T10:21:13;0.95;;;0.50;;
52848;SDS011;38714;53.180;5.812;2024-02-26T10:23:42;0.32;;;0.32;;
52848;SDS011;38714;53.180;5.812;2024-02-26T10:26:10;0.90;;;0.63;;
52848;SDS011;38714;53.180;5.812;2024-02-26T10:28:37;0.30;;;0.30;;
52848;SDS011;38714;53.180;5.812;2024-02-26T10:31:03;0.45;;;0.45;;
52848;SDS011;38714;53.180;5.812;2024-02-26T10:33:29;1.00;;;0.68;;
52848;SDS011;38714;53.180;5.812;2024-02-26T10:35:54;2.22;;;0.65;;
52848;SDS011;38714;53.180;5.812;2024-02-26T10:38:20;0.90;;;0.80;;
52848;SDS011;38714;53.180;5.812;2024-02-26T10:40:46;0.70;;;0.70;;
52848;SDS011;38714;53.180;5.812;2024-02-26T10:43:13;1.95;;;0.40;;
52848;SDS011;38714;53.180;5.812;2024-02-26T10:45:41;1.33;;;0.93;;
52848;SDS011;38714;53.180;5.812;2024-02-26T10:48:12;3.72;;;1.15;;
52848;SDS011;38714;53.180;5.812;2024-02-26T10:50:39;0.50;;;0.35;;
52848;SDS011;38714;53.180;5.812;2024-02-26T10:53:15;0.80;;;0.80;;
52848;SDS011;38714;53.180;5.812;2024-02-26T10:55:45;0.40;;;0.40;;
52848;SDS011;38714;53.180;5.812;2024-02-26T10:58:14;1.58;;;0.50;;
52848;SDS011;38714;53.180;5.812;2024-02-26T11:00:41;0.70;;;0.70;;
52848;SDS011;38714;53.180;5.812;2024-02-26T11:03:08;1.25;;;0.85;;
52848;SDS011;38714;53.180;5.812;2024-02-26T11:05:35;0.93;;;0.77;;
52848;SDS011;38714;53.180;5.812;2024-02-26T11:08:02;1.02;;;0.75;;
52848;SDS011;38714;53.180;5.812;2024-02-26T11:10:29;0.82;;;0.70;;
52848;SDS011;38714;53.180;5.812;2024-02-26T11:12:55;1.83;;;0.60;;
52848;SDS011;38714;53.180;5.812;2024-02-26T11:15:24;1.65;;;0.57;;
52848;SDS011;38714;53.180;5.812;2024-02-26T11:17:51;1.58;;;1.48;;
52848;SDS011;38714;53.180;5.812;2024-02-26T11:20:19;0.85;;;0.70;;
52848;SDS011;38714;53.180;5.812;2024-02-26T11:22:45;3.97;;;1.10;;
52848;SDS011;38714;53.180;5.812;2024-02-26T11:25:11;1.35;;;1.08;;
52848;SDS011;38714;53.180;5.812;2024-02-26T11:27:45;2.00;;;1.52;;
52848;SDS011;38714;53.180;5.812;2024-02-26T11:30:14;0.65;;;0.65;;
52848;SDS011;38714;53.180;5.812;2024-02-26T11:32:43;3.72;;;0.68;;
52848;SDS011;38714;53.180;5.812;2024-02-26T11:35:12;4.00;;;1.00;;
52848;SDS011;38714;53.180;5.812;2024-02-26T11:37:40;0.77;;;0.75;;
52848;SDS011;38714;53.180;5.812;2024-02-26T11:40:10;1.88;;;0.80;;
52848;SDS011;38714;53.180;5.812;2024-02-26T11:42:42;0.40;;;0.40;;
52848;SDS011;38714;53.180;5.812;2024-02-26T11:48:13;0.98;;;0.85;;
52848;SDS011;38714;53.180;5.812;2024-02-26T11:50:54;2.17;;;0.65;;
52848;SDS011;38714;53.180;5.812;2024-02-26T11:58:39;1.08;;;0.98;;
52848;SDS011;38714;53.180;5.812;2024-02-26T12:01:05;1.35;;;1.00;;
52848;SDS011;38714;53.180;5.812;2024-02-26T12:03:31;1.48;;;1.38;;
52848;SDS011;38714;53.180;5.812;2024-02-26T12:05:56;1.17;;;0.82;;
52848;SDS011;38714;53.180;5.812;2024-02-26T12:08:22;1.02;;;0.70;;
52848;SDS011;38714;53.180;5.812;2024-02-26T12:10:50;1.67;;;1.38;;
52848;SDS011;38714;53.180;5.812;2024-02-26T12:13:20;2.40;;;1.08;;
52848;SDS011;38714;53.180;5.812;2024-02-26T12:15:56;2.13;;;1.48;;
52848;SDS011;38714;53.180;5.812;2024-02-26T12:18:23;1.05;;;0.82;;
52848;SDS011;38714;53.180;5.812;2024-02-26T12:21:04;1.15;;;1.02;;
52848;SDS011;38714;53.180;5.812;2024-02-26T12:23:30;1.48;;;1.08;;
52848;SDS011;38714;53.180;5.812;2024-02-26T12:25:59;1.10;;;0.90;;
52848;SDS011;38714;53.180;5.812;2024-02-26T12:28:31;4.90;;;1.55;;
52848;SDS011;38714;53.180;5.812;2024-02-26T12:30:56;2.22;;;1.15;;
52848;SDS011;38714;53.180;5.812;2024-02-26T12:33:24;1.40;;;1.30;;
52848;SDS011;38714;53.180;5.812;2024-02-26T12:35:51;1.05;;;0.85;;
52848;SDS011;38714;53.180;5.812;2024-02-26T12:38:18;5.72;;;1.13;;
52848;SDS011;38714;53.180;5.812;2024-02-26T12:40:44;4.40;;;1.35;;
52848;SDS011;38714;53.180;5.812;2024-02-26T12:43:10;1.90;;;0.82;;
52848;SDS011;38714;53.180;5.812;2024-02-26T12:45:41;3.00;;;0.95;;
52848;SDS011;38714;53.180;5.812;2024-02-26T12:48:06;1.27;;;0.85;;
52848;SDS011;38714;53.180;5.812;2024-02-26T12:50:32;4.97;;;2.05;;
52848;SDS011;38714;53.180;5.812;2024-02-26T12:52:59;2.53;;;2.03;;
52848;SDS011;38714;53.180;5.812;2024-02-26T12:55:25;3.72;;;1.13;;
52848;SDS011;38714;53.180;5.812;2024-02-26T12:57:51;3.92;;;0.93;;
52848;SDS011;38714;53.180;5.812;2024-02-26T13:00:18;1.33;;;0.70;;
52848;SDS011;38714;53.180;5.812;2024-02-26T13:02:48;5.88;;;2.33;;
52848;SDS011;38714;53.180;5.812;2024-02-26T13:05:15;2.65;;;0.88;;
52848;SDS011;38714;53.180;5.812;2024-02-26T13:07:42;2.70;;;1.00;;
52848;SDS011;38714;53.180;5.812;2024-02-26T13:10:09;1.75;;;1.08;;
52848;SDS011;38714;53.180;5.812;2024-02-26T13:12:37;1.45;;;1.35;;
52848;SDS011;38714;53.180;5.812;2024-02-26T13:15:06;3.60;;;1.52;;
52848;SDS011;38714;53.180;5.812;2024-02-26T13:17:34;1.27;;;1.08;;
52848;SDS011;38714;53.180;5.812;2024-02-26T13:20:00;2.28;;;1.10;;
52848;SDS011;38714;53.180;5.812;2024-02-26T13:22:25;1.05;;;0.82;;
52848;SDS011;38714;53.180;5.812;2024-02-26T13:24:54;0.60;;;0.60;;
52848;SDS011;38714;53.180;5.812;2024-02-26T13:27:22;0.98;;;0.75;;
52848;SDS011;38714;53.180;5.812;2024-02-26T13:29:48;1.13;;;0.88;;
52848;SDS011;38714;53.180;5.812;2024-02-26T13:32:14;1.80;;;1.20;;
52848;SDS011;38714;53.180;5.812;2024-02-26T13:34:39;1.05;;;0.93;;
52848;SDS011;38714;53.180;5.812;2024-02-26T13:37:05;1.08;;;0.98;;
52848;SDS011;38714;53.180;5.812;2024-02-26T13:39:31;2.65;;;1.10;;
52848;SDS011;38714;53.180;5.812;2024-02-26T13:41:56;6.07;;;0.80;;
52848;SDS011;38714;53.180;5.812;2024-02-26T13:44:22;0.93;;;0.93;;
52848;SDS011;38714;53.180;5.812;2024-02-26T13:46:49;2.78;;;1.02;;
52848;SDS011;38714;53.180;5.812;2024-02-26T13:49:15;1.33;;;1.10;;
52848;SDS011;38714;53.180;5.812;2024-02-26T13:51:40;1.85;;;1.15;;
52848;SDS011;38714;53.180;5.812;2024-02-26T13:54:06;2.08;;;0.95;;
52848;SDS011;38714;53.180;5.812;2024-02-26T13:56:32;2.70;;;1.00;;
52848;SDS011;38714;53.180;5.812;2024-02-26T13:58:58;1.27;;;1.17;;
52848;SDS011;38714;53.180;5.812;2024-02-26T14:01:25;1.75;;;1.00;;
52848;SDS011;38714;53.180;5.812;2024-02-26T14:03:50;1.02;;;0.70;;
52848;SDS011;38714;53.180;5.812;2024-02-26T14:06:16;0.73;;;0.60;;
52848;SDS011;38714;53.180;5.812;2024-02-26T14:08:42;0.90;;;0.80;;
52848;SDS011;38714;53.180;5.812;2024-02-26T14:11:07;1.80;;;0.30;;
52848;SDS011;38714;53.180;5.812;2024-02-26T14:13:33;0.32;;;0.32;;
52848;SDS011;38714;53.180;5.812;2024-02-26T14:15:59;1.15;;;0.70;;
52848;SDS011;38714;53.180;5.812;2024-02-26T14:18:24;2.03;;;1.55;;
52848;SDS011;38714;53.180;5.812;2024-02-26T14:20:50;3.30;;;0.68;;
52848;SDS011;38714;53.180;5.812;2024-02-26T14:23:16;2.05;;;0.85;;
52848;SDS011;38714;53.180;5.812;2024-02-26T14:25:42;9.52;;;0.98;;
52848;SDS011;38714;53.180;5.812;2024-02-26T14:28:07;1.88;;;0.93;;
52848;SDS011;38714;53.180;5.812;2024-02-26T14:30:34;1.63;;;1.17;;
52848;SDS011;38714;53.180;5.812;2024-02-26T14:32:59;0.98;;;0.98;;
52848;SDS011;38714;53.180;5.812;2024-02-26T14:35:25;2.65;;;0.77;;
52848;SDS011;38714;53.180;5.812;2024-02-26T14:37:51;1.45;;;0.80;;
52848;SDS011;38714;53.180;5.812;2024-02-26T14:40:17;2.42;;;0.65;;
52848;SDS011;38714;53.180;5.812;2024-02-26T14:42:43;2.22;;;0.82;;
52848;SDS011;38714;53.180;5.812;2024-02-26T14:45:09;1.23;;;0.50;;
52848;SDS011;38714;53.180;5.812;2024-02-26T14:47:36;0.65;;;0.57;;
52848;SDS011;38714;53.180;5.812;2024-02-26T14:50:02;0.60;;;0.60;;
52848;SDS011;38714;53.180;5.812;2024-02-26T14:52:27;0.20;;;0.20;;